Time;durP1;ratioP1;P1;durP2;ratioP2;P2;SDS_P1;SDS_P2;PMS_P1;PMS_P2;Temp;Humidity;BMP_temperature;BMP_pressure;BME280_temperature;BME280_humidity;BME280_pressure;Samples;Min_cycle;Max_cycle;Signal;HPM_P1;HPM_P2
2021/01/31 00:01:03;;;;;;;7.53;6.50;;;3.00;99.90;;;;;;4938066;29;20185;-70
2021/01/31 00:03:30;;;;;;;8.40;6.67;;;2.90;99.90;;;;;;4938076;29;20183;-70
2021/01/31 00:05:58;;;;;;;8.80;6.77;;;3.00;99.90;;;;;;4937778;29;20186;-70
2021/01/31 00:08:25;;;;;;;7.90;6.90;;;2.90;99.90;;;;;;4937534;29;20983;-66
2021/01/31 00:14:12;;;;;;;8.77;6.33;;;2.90;99.90;;;;;;4937570;29;20548;-68
2021/01/31 00:16:37;;;;;;;8.67;7.33;;;2.90;99.90;;;;;;4937791;29;20503;-68
2021/01/31 00:19:03;;;;;;;8.50;6.63;;;2.90;99.90;;;;;;4937702;29;20183;-68
2021/01/31 00:21:28;;;;;;;8.37;6.40;;;3.00;99.90;;;;;;4937691;29;20206;-68
2021/01/31 00:23:54;;;;;;;8.70;7.37;;;2.90;99.90;;;;;;4937330;29;20178;-67
2021/01/31 00:26:20;;;;;;;10.00;7.27;;;2.70;99.90;;;;;;4937529;29;20174;-66
2021/01/31 00:28:45;;;;;;;7.80;6.23;;;2.70;99.90;;;;;;4937227;29;20187;-67
2021/01/31 00:34:33;;;;;;;9.73;7.43;;;2.80;99.90;;;;;;4937235;29;20162;-67
2021/01/31 00:40:21;;;;;;;7.87;6.70;;;3.00;99.90;;;;;;4937164;29;20166;-67
2021/01/31 00:46:08;;;;;;;10.20;6.80;;;2.80;99.90;;;;;;4936795;29;20408;-68
2021/01/31 00:48:34;;;;;;;8.20;6.27;;;2.70;99.90;;;;;;4937017;29;20453;-68
2021/01/31 00:50:59;;;;;;;6.27;5.67;;;2.70;99.90;;;;;;4937191;29;20178;-68
2021/01/31 00:53:25;;;;;;;9.30;6.80;;;2.70;99.90;;;;;;4936874;29;20223;-67
2021/01/31 00:55:50;;;;;;;10.83;7.80;;;2.70;99.90;;;;;;4936841;29;20219;-68
2021/01/31 00:58:16;;;;;;;10.70;7.87;;;2.70;99.90;;;;;;4936767;29;20181;-70
2021/01/31 01:00:42;;;;;;;7.93;7.13;;;2.70;99.90;;;;;;4936650;29;20542;-68
2021/01/31 01:03:09;;;;;;;8.67;7.50;;;2.80;99.90;;;;;;4936581;29;20223;-68
2021/01/31 01:05:35;;;;;;;10.07;7.23;;;2.80;99.90;;;;;;4935919;29;20191;-67
2021/01/31 01:08:01;;;;;;;9.53;6.87;;;2.80;99.90;;;;;;4936451;29;20483;-67
2021/01/31 01:10:30;;;;;;;10.30;7.40;;;2.80;99.90;;;;;;4936450;29;20463;-67
2021/01/31 01:12:56;;;;;;;8.67;7.30;;;2.70;99.90;;;;;;4936266;29;20471;-66
2021/01/31 01:15:27;;;;;;;10.63;8.20;;;2.70;99.90;;;;;;4936602;29;20434;-66
2021/01/31 01:17:54;;;;;;;8.43;6.90;;;2.70;99.90;;;;;;4936464;29;20172;-66
2021/01/31 01:20:20;;;;;;;11.90;7.53;;;2.70;99.90;;;;;;4936675;29;20443;-66
2021/01/31 01:22:45;;;;;;;7.83;6.33;;;2.70;99.90;;;;;;4936358;29;20435;-66
2021/01/31 01:25:17;;;;;;;9.70;7.53;;;2.70;99.90;;;;;;4936909;29;20443;-67
2021/01/31 01:27:42;;;;;;;14.73;8.03;;;2.70;99.90;;;;;;4936566;29;20271;-68
2021/01/31 01:30:12;;;;;;;9.03;7.33;;;2.60;99.90;;;;;;4936253;29;20430;-66
2021/01/31 01:32:38;;;;;;;9.70;6.87;;;2.60;99.90;;;;;;4936280;29;20218;-66
2021/01/31 01:35:08;;;;;;;7.90;6.50;;;2.60;99.90;;;;;;4936542;29;20423;-69
2021/01/31 01:37:34;;;;;;;7.60;6.43;;;2.60;99.90;;;;;;4936169;29;20187;-70
2021/01/31 01:40:00;;;;;;;11.83;7.80;;;2.60;99.90;;;;;;4936172;29;20430;-70
2021/01/31 01:42:26;;;;;;;10.20;7.47;;;2.60;99.90;;;;;;4936421;29;20214;-70
2021/01/31 01:44:51;;;;;;;10.80;6.93;;;2.60;99.90;;;;;;4936416;29;20918;-67
2021/01/31 01:47:20;;;;;;;8.77;7.30;;;2.60;99.90;;;;;;4936303;29;20216;-67
2021/01/31 01:49:48;;;;;;;9.70;6.57;;;2.60;99.90;;;;;;4936400;29;20179;-67
2021/01/31 01:52:32;;;;;;;8.90;7.20;;;2.60;99.90;;;;;;4936005;29;21304;-67
2021/01/31 01:55:11;;;;;;;8.30;6.37;;;2.60;99.90;;;;;;4936024;29;20441;-66
2021/01/31 01:58:11;;;;;;;9.53;7.33;;;2.60;99.90;;;;;;4936594;29;20504;-67
2021/01/31 02:00:36;;;;;;;10.33;8.27;;;2.60;99.90;;;;;;4935863;29;20782;-66
2021/01/31 02:06:27;;;;;;;7.57;6.30;;;2.50;99.90;;;;;;4935996;29;20169;-66
2021/01/31 02:08:55;;;;;;;9.07;6.27;;;2.50;99.90;;;;;;4935881;29;20432;-66
2021/01/31 02:11:22;;;;;;;6.80;6.10;;;2.50;99.90;;;;;;4936045;29;20431;-66
2021/01/31 02:13:52;;;;;;;10.70;7.20;;;2.50;99.90;;;;;;4936293;29;20526;-69
2021/01/31 02:16:24;;;;;;;8.93;6.57;;;2.50;99.90;;;;;;4938198;29;20451;-69
2021/01/31 02:18:52;;;;;;;8.93;5.77;;;2.50;99.90;;;;;;4940134;29;20489;-69
2021/01/31 02:21:29;;;;;;;9.00;7.43;;;2.50;99.90;;;;;;4940011;29;20510;-69
2021/01/31 06:32:18;;;;;;;14.47;9.23;;;1.30;99.90;;;;;;5225708;23;20542;-67
2021/01/31 06:34:51;;;;;;;12.90;7.87;;;1.30;99.90;;;;;;4935717;29;20453;-67
2021/01/31 06:37:36;;;;;;;13.40;8.80;;;1.30;99.90;;;;;;4935563;29;20426;-67
2021/01/31 06:40:16;;;;;;;15.90;8.53;;;1.20;99.90;;;;;;4935589;29;20518;-67
2021/01/31 06:42:50;;;;;;;10.43;8.00;;;1.10;99.90;;;;;;4935466;29;20450;-67
2021/01/31 06:45:23;;;;;;;16.10;8.80;;;1.10;99.90;;;;;;4935553;29;20431;-67
2021/01/31 06:48:04;;;;;;;13.03;8.83;;;1.10;99.90;;;;;;4935428;29;20474;-67
2021/01/31 06:51:00;;;;;;;15.90;8.43;;;1.10;99.90;;;;;;4935552;29;20522;-68
2021/01/31 06:53:47;;;;;;;13.10;8.37;;;1.10;99.90;;;;;;4935551;29;20462;-69
2021/01/31 06:56:37;;;;;;;9.63;7.50;;;1.00;99.90;;;;;;4935080;29;20526;-70
2021/01/31 06:59:30;;;;;;;18.03;9.20;;;1.00;99.90;;;;;;4934911;29;20790;-70
2021/01/31 07:02:19;;;;;;;13.87;8.53;;;1.10;99.90;;;;;;4935394;29;20430;-69
2021/01/31 07:05:28;;;;;;;13.23;8.00;;;1.20;99.90;;;;;;4938883;29;20523;-66
2021/01/31 07:08:12;;;;;;;14.77;8.33;;;1.20;99.90;;;;;;4938629;29;20491;-66
2021/01/31 07:10:55;;;;;;;15.67;8.43;;;1.10;99.90;;;;;;4938657;29;20410;-66
2021/01/31 07:13:28;;;;;;;16.00;8.33;;;1.00;99.90;;;;;;4938391;29;20474;-69
2021/01/31 07:16:19;;;;;;;20.30;9.90;;;1.00;99.90;;;;;;5055849;23;20460;-68
2021/01/31 07:18:53;;;;;;;13.53;8.70;;;0.90;99.90;;;;;;4957576;28;20175;-68
2021/01/31 07:21:24;;;;;;;15.63;9.33;;;0.90;99.90;;;;;;4957346;29;20430;-68
2021/01/31 07:23:55;;;;;;;17.70;9.60;;;0.90;99.90;;;;;;4957446;28;20426;-68
2021/01/31 07:26:40;;;;;;;12.07;8.73;;;0.80;99.90;;;;;;4957166;28;20740;-69
2021/01/31 07:29:11;;;;;;;14.30;9.00;;;0.80;99.90;;;;;;4957115;28;20443;-67
2021/01/31 07:31:43;;;;;;;23.80;9.00;;;0.80;99.90;;;;;;4957160;28;20438;-69
2021/01/31 07:34:14;;;;;;;16.93;8.87;;;0.80;99.90;;;;;;4957272;28;20442;-69
2021/01/31 07:37:03;;;;;;;14.20;8.87;;;0.80;99.90;;;;;;4957278;28;20492;-68
2021/01/31 07:39:59;;;;;;;16.50;9.97;;;0.80;99.90;;;;;;4956717;29;20469;-65
2021/01/31 07:42:27;;;;;;;17.03;9.33;;;0.80;99.90;;;;;;4957501;28;20468;-65
2021/01/31 07:45:03;;;;;;;15.50;9.77;;;0.80;99.90;;;;;;4957238;28;20429;-65
2021/01/31 07:47:29;;;;;;;13.30;8.83;;;0.80;99.90;;;;;;4956919;28;21059;-65
2021/01/31 07:49:55;;;;;;;14.37;8.80;;;0.80;99.90;;;;;;4956955;29;20470;-66
2021/01/31 07:52:26;;;;;;;11.97;8.47;;;0.90;99.90;;;;;;4956919;28;20207;-69
2021/01/31 07:55:18;;;;;;;13.10;9.23;;;1.00;99.90;;;;;;4956392;28;20298;-66
2021/01/31 07:58:25;;;;;;;17.57;8.40;;;0.90;99.90;;;;;;4956116;28;20517;-67
2021/01/31 08:00:53;;;;;;;13.40;8.20;;;0.90;99.90;;;;;;4951750;29;20509;-68
2021/01/31 08:03:18;;;;;;;13.17;8.70;;;1.00;99.90;;;;;;4955817;28;21008;-70
2021/01/31 08:05:47;;;;;;;13.30;7.70;;;1.20;99.90;;;;;;4955963;29;20509;-68
2021/01/31 08:08:35;;;;;;;46.40;34.93;;;1.30;99.90;;;;;;4954250;29;20215;-67
2021/01/31 08:11:01;;;;;;;19.60;12.83;;;1.40;99.90;;;;;;4954461;29;20770;-66
2021/01/31 08:13:41;;;;;;;16.63;11.00;;;1.40;99.90;;;;;;4954479;28;20440;-67
2021/01/31 08:16:38;;;;;;;12.00;8.47;;;1.50;99.90;;;;;;4954881;28;20225;-67
2021/01/31 08:19:07;;;;;;;11.30;7.70;;;1.60;99.90;;;;;;4954584;29;20443;-68
2021/01/31 08:21:56;;;;;;;13.90;8.47;;;1.60;99.90;;;;;;4953102;29;20942;-68
2021/01/31 08:24:58;;;;;;;13.77;8.37;;;1.70;99.90;;;;;;4954017;29;20432;-68
2021/01/31 08:27:52;;;;;;;12.20;8.40;;;1.70;99.90;;;;;;4954585;29;20475;-68
2021/01/31 08:30:33;;;;;;;11.87;8.47;;;1.60;99.90;;;;;;4955189;28;20429;-67
2021/01/31 08:33:01;;;;;;;16.40;9.20;;;1.60;99.90;;;;;;4954986;28;20464;-68
2021/01/31 08:36:03;;;;;;;14.07;9.53;;;1.60;99.90;;;;;;4955429;29;20438;-67
2021/01/31 08:38:31;;;;;;;15.73;8.00;;;1.60;99.90;;;;;;4936548;28;20497;-67
2021/01/31 08:41:05;;;;;;;14.87;9.70;;;1.70;99.90;;;;;;4955131;28;20449;-67
2021/01/31 08:43:43;;;;;;;27.17;9.77;;;1.70;99.90;;;;;;4955319;29;20524;-67
2021/01/31 08:46:10;;;;;;;13.63;8.63;;;1.80;99.90;;;;;;4955119;29;20549;-67
2021/01/31 08:48:36;;;;;;;10.87;8.60;;;2.00;99.90;;;;;;4954779;28;20487;-68
2021/01/31 08:51:20;;;;;;;13.37;7.80;;;2.10;99.90;;;;;;4955121;28;20436;-68
2021/01/31 08:54:08;;;;;;;12.40;8.83;;;2.20;99.90;;;;;;4954483;28;20254;-71
2021/01/31 08:56:41;;;;;;;11.93;7.97;;;2.30;99.90;;;;;;4953579;29;20465;-69
2021/01/31 08:59:20;;;;;;;12.20;9.03;;;2.40;99.90;;;;;;4954599;28;20443;-68
2021/01/31 09:02:16;;;;;;;10.27;8.90;;;2.50;99.90;;;;;;4954954;28;20454;-67
2021/01/31 09:04:58;;;;;;;15.27;10.20;;;2.60;99.90;;;;;;4954702;28;20443;-68
2021/01/31 09:07:44;;;;;;;12.70;8.30;;;2.70;99.90;;;;;;4954638;28;20477;-69
2021/01/31 09:10:29;;;;;;;13.77;9.50;;;2.80;99.90;;;;;;4954637;28;20515;-68
2021/01/31 09:13:08;;;;;;;13.63;9.47;;;2.90;99.90;;;;;;4954720;28;20522;-67
2021/01/31 09:15:34;;;;;;;13.80;8.70;;;3.00;99.90;;;;;;4954568;28;20468;-67
2021/01/31 09:18:19;;;;;;;15.80;10.03;;;3.10;99.90;;;;;;4954404;29;20443;-66
2021/01/31 09:20:45;;;;;;;11.97;9.43;;;3.20;99.90;;;;;;4954805;28;20182;-67
2021/01/31 09:23:32;;;;;;;14.07;9.60;;;3.40;99.90;;;;;;4954328;28;20430;-68
2021/01/31 09:25:58;;;;;;;16.10;9.07;;;3.50;99.90;;;;;;4953828;28;20421;-68
2021/01/31 09:28:26;;;;;;;13.27;9.13;;;3.70;99.90;;;;;;4954111;29;20478;-68
2021/01/31 09:31:02;;;;;;;14.60;9.20;;;3.80;99.90;;;;;;4954524;28;20201;-68
2021/01/31 09:33:38;;;;;;;12.27;8.00;;;3.90;99.90;;;;;;4954361;28;20423;-68
2021/01/31 09:36:27;;;;;;;12.33;8.83;;;4.00;99.90;;;;;;4954343;28;20428;-68
2021/01/31 09:38:56;;;;;;;12.93;9.53;;;4.10;99.90;;;;;;4954556;28;20483;-70
2021/01/31 09:41:24;;;;;;;16.90;11.50;;;4.20;99.90;;;;;;4953877;28;20424;-70
2021/01/31 09:43:56;;;;;;;14.50;10.43;;;4.30;99.90;;;;;;4954302;28;20459;-70
2021/01/31 09:46:26;;;;;;;14.00;11.10;;;4.40;99.90;;;;;;4953976;28;20827;-70
2021/01/31 09:49:20;;;;;;;15.57;10.50;;;4.50;99.90;;;;;;4954290;28;20453;-67
2021/01/31 09:51:46;;;;;;;15.20;9.80;;;4.60;99.90;;;;;;4954289;28;20432;-66
2021/01/31 09:54:16;;;;;;;12.10;9.47;;;4.60;99.90;;;;;;4954092;28;21067;-66
2021/01/31 09:56:52;;;;;;;15.53;9.73;;;4.70;99.90;;;;;;4954029;29;20439;-67
2021/01/31 09:59:35;;;;;;;16.10;10.60;;;4.80;99.90;;;;;;4953962;28;20420;-66
2021/01/31 10:02:11;;;;;;;23.97;10.57;;;4.80;99.90;;;;;;4953958;28;20431;-67
2021/01/31 10:04:38;;;;;;;13.93;10.93;;;4.80;99.90;;;;;;4953018;28;20486;-67
2021/01/31 10:07:10;;;;;;;14.50;10.80;;;4.80;99.90;;;;;;4953714;28;20293;-67
2021/01/31 10:09:39;;;;;;;17.70;10.90;;;4.90;99.90;;;;;;4953840;28;20527;-67
2021/01/31 10:12:23;;;;;;;14.63;9.90;;;4.90;99.90;;;;;;4953853;28;20437;-67
2021/01/31 10:15:01;;;;;;;12.87;9.20;;;5.00;99.90;;;;;;4953966;29;20782;-67
2021/01/31 10:17:39;;;;;;;13.63;9.10;;;5.10;99.90;;;;;;4953869;28;20516;-66
2021/01/31 10:20:24;;;;;;;16.03;10.87;;;5.10;99.90;;;;;;4953854;28;20488;-68
2021/01/31 10:22:51;;;;;;;17.70;10.77;;;5.00;99.90;;;;;;4954027;28;20431;-68
2021/01/31 10:25:17;;;;;;;13.70;10.03;;;4.90;99.90;;;;;;4953682;28;20437;-67
2021/01/31 10:27:45;;;;;;;13.40;9.93;;;4.90;99.90;;;;;;4953913;29;20476;-67
2021/01/31 10:30:25;;;;;;;11.93;9.40;;;4.90;99.90;;;;;;4953819;28;20213;-68
2021/01/31 10:32:52;;;;;;;18.27;10.47;;;4.80;99.90;;;;;;4953841;29;20441;-67
2021/01/31 10:35:30;;;;;;;17.47;10.03;;;4.80;99.90;;;;;;4953667;28;20440;-67
2021/01/31 10:37:57;;;;;;;12.50;9.17;;;4.80;99.90;;;;;;4956348;28;20468;-65
2021/01/31 10:40:23;;;;;;;17.17;10.87;;;4.80;99.90;;;;;;4957324;28;20914;-66
2021/01/31 10:42:48;;;;;;;15.23;10.70;;;4.80;99.90;;;;;;4957554;28;20448;-67
2021/01/31 10:45:19;;;;;;;13.63;10.53;;;4.80;99.90;;;;;;4957224;29;20432;-66
2021/01/31 10:47:46;;;;;;;15.23;10.50;;;4.80;99.90;;;;;;4957433;28;20347;-66
2021/01/31 10:50:14;;;;;;;14.17;10.57;;;4.90;99.90;;;;;;4957264;28;20740;-67
2021/01/31 10:52:41;;;;;;;14.30;10.20;;;4.90;99.90;;;;;;4957035;28;20433;-67
2021/01/31 10:55:08;;;;;;;13.43;10.77;;;4.90;99.90;;;;;;4957212;28;20441;-66
2021/01/31 10:57:34;;;;;;;15.10;10.17;;;4.90;99.90;;;;;;4957204;28;20968;-66
2021/01/31 10:59:59;;;;;;;14.57;9.73;;;4.90;99.90;;;;;;4956874;29;20536;-71
2021/01/31 11:02:25;;;;;;;13.13;9.83;;;5.20;99.90;;;;;;4957219;29;20193;-67
2021/01/31 11:04:50;;;;;;;15.80;10.53;;;5.20;99.90;;;;;;4957070;29;20218;-68
2021/01/31 11:07:16;;;;;;;17.23;11.60;;;5.20;99.90;;;;;;4956599;29;20256;-67
2021/01/31 11:09:42;;;;;;;14.70;9.97;;;5.20;99.90;;;;;;4956904;29;20248;-69
2021/01/31 11:12:07;;;;;;;12.73;10.10;;;5.20;99.90;;;;;;4957033;29;20185;-67
2021/01/31 11:14:33;;;;;;;12.67;9.53;;;5.30;99.90;;;;;;4956812;29;20217;-67
2021/01/31 11:17:00;;;;;;;12.70;8.90;;;5.40;99.90;;;;;;4956430;28;20237;-67
2021/01/31 11:19:25;;;;;;;14.13;9.93;;;5.50;99.90;;;;;;4955704;28;20200;-67
2021/01/31 11:21:51;;;;;;;13.13;9.60;;;5.50;99.90;;;;;;4956415;29;20434;-69
2021/01/31 11:24:17;;;;;;;12.23;8.43;;;5.50;99.90;;;;;;4955957;29;20182;-69
2021/01/31 11:26:42;;;;;;;11.67;9.60;;;5.70;99.90;;;;;;4956370;29;20182;-69
2021/01/31 11:29:08;;;;;;;14.73;9.97;;;5.80;99.90;;;;;;4955693;29;20547;-68
2021/01/31 11:31:33;;;;;;;16.00;9.90;;;5.90;99.90;;;;;;4955675;28;20192;-69
2021/01/31 11:34:00;;;;;;;14.97;10.00;;;5.90;99.40;;;;;;4956275;29;20622;-69
2021/01/31 11:36:25;;;;;;;11.40;8.20;;;5.90;99.90;;;;;;4956505;28;20225;-69
2021/01/31 11:38:51;;;;;;;12.87;9.37;;;5.90;99.90;;;;;;4956078;29;20426;-68
2021/01/31 11:41:17;;;;;;;10.80;9.00;;;6.00;99.40;;;;;;4955692;29;20579;-68
2021/01/31 11:43:43;;;;;;;10.00;8.40;;;6.00;98.90;;;;;;4955934;28;20179;-68
2021/01/31 11:46:08;;;;;;;11.63;8.50;;;6.20;97.80;;;;;;4956185;28;20948;-68
2021/01/31 11:48:34;;;;;;;12.10;8.73;;;6.20;97.20;;;;;;4955563;28;20908;-68
2021/01/31 11:51:00;;;;;;;14.03;9.83;;;6.20;97.40;;;;;;4954774;29;20550;-68
2021/01/31 11:53:25;;;;;;;14.13;10.33;;;6.10;97.90;;;;;;4956252;29;20259;-68
2021/01/31 11:55:51;;;;;;;14.63;10.23;;;6.20;98.60;;;;;;4956145;29;20694;-68
2021/01/31 11:58:17;;;;;;;11.83;8.67;;;6.30;98.70;;;;;;4955872;29;20178;-68
2021/01/31 12:00:42;;;;;;;16.30;10.00;;;6.30;98.30;;;;;;4956017;28;20187;-68
2021/01/31 12:03:09;;;;;;;15.83;9.03;;;6.30;98.90;;;;;;4955874;29;20174;-67
2021/01/31 12:05:34;;;;;;;15.60;10.60;;;6.30;99.90;;;;;;4956115;28;20210;-68
2021/01/31 12:08:00;;;;;;;16.90;11.60;;;6.60;99.90;;;;;;4955626;29;21016;-68
2021/01/31 12:10:26;;;;;;;12.83;9.00;;;6.80;99.50;;;;;;4955805;29;20171;-68
2021/01/31 12:12:52;;;;;;;14.87;10.17;;;6.90;98.40;;;;;;4955780;28;20514;-68
2021/01/31 12:15:19;;;;;;;16.70;10.07;;;7.10;99.90;;;;;;4955395;28;20422;-68
2021/01/31 12:17:44;;;;;;;12.57;8.60;;;7.30;97.00;;;;;;4955698;28;20514;-68
2021/01/31 12:20:12;;;;;;;15.00;10.37;;;7.30;96.10;;;;;;4955525;29;20874;-68
2021/01/31 12:22:38;;;;;;;11.67;7.93;;;7.30;95.90;;;;;;4946630;28;20191;-68
2021/01/31 12:25:07;;;;;;;11.67;9.23;;;7.40;95.00;;;;;;4953420;29;20445;-68
2021/01/31 12:27:32;;;;;;;11.30;9.47;;;7.30;94.90;;;;;;4939006;28;20592;-68
2021/01/31 12:29:58;;;;;;;20.33;9.47;;;7.20;94.10;;;;;;4947916;29;20945;-68
2021/01/31 12:32:23;;;;;;;11.53;8.70;;;7.20;94.80;;;;;;4940370;28;20191;-68
2021/01/31 12:34:49;;;;;;;16.53;10.53;;;7.10;95.70;;;;;;4945341;29;20179;-68
2021/01/31 12:37:16;;;;;;;13.07;8.53;;;7.10;94.80;;;;;;4955063;29;20237;-68
2021/01/31 12:39:42;;;;;;;16.37;10.73;;;7.10;95.00;;;;;;4955043;28;20638;-69
2021/01/31 12:42:08;;;;;;;12.83;9.57;;;7.00;95.60;;;;;;4954953;28;20485;-69
2021/01/31 12:44:33;;;;;;;14.00;9.40;;;7.10;94.30;;;;;;4951878;29;20611;-69
2021/01/31 12:46:59;;;;;;;14.90;9.27;;;7.00;95.00;;;;;;4936160;29;20534;-69
2021/01/31 12:49:25;;;;;;;17.13;10.00;;;7.00;95.00;;;;;;4937288;29;20186;-69
2021/01/31 12:51:50;;;;;;;15.90;8.97;;;7.00;95.10;;;;;;4935700;29;20530;-68
2021/01/31 12:54:16;;;;;;;15.10;9.70;;;7.00;95.10;;;;;;4954241;29;20237;-68
2021/01/31 12:56:41;;;;;;;16.13;11.10;;;7.00;94.70;;;;;;4954301;29;20214;-68
2021/01/31 12:59:07;;;;;;;16.90;8.20;;;7.00;94.60;;;;;;4950472;29;20847;-68
2021/01/31 13:01:32;;;;;;;14.73;9.67;;;7.00;95.50;;;;;;4952733;29;20197;-69
2021/01/31 13:03:58;;;;;;;14.90;9.50;;;7.00;95.10;;;;;;4954238;29;20173;-68
2021/01/31 13:06:24;;;;;;;13.30;8.93;;;6.90;94.80;;;;;;4954368;29;20530;-68
2021/01/31 13:08:50;;;;;;;13.00;9.33;;;6.90;95.00;;;;;;4954797;28;20531;-68
2021/01/31 13:11:16;;;;;;;14.53;9.80;;;6.90;94.70;;;;;;4937763;29;20436;-68
2021/01/31 13:13:42;;;;;;;16.50;11.00;;;7.00;94.10;;;;;;4935547;29;20526;-67
2021/01/31 13:16:07;;;;;;;14.40;8.90;;;7.10;94.20;;;;;;4934672;29;20477;-68
2021/01/31 13:18:33;;;;;;;12.63;9.03;;;7.00;93.90;;;;;;4935168;29;20183;-68
2021/01/31 13:20:59;;;;;;;12.63;9.53;;;7.00;93.20;;;;;;4953407;29;20190;-68
2021/01/31 13:23:25;;;;;;;11.80;8.73;;;6.90;93.70;;;;;;4954560;29;20437;-69
2021/01/31 13:25:50;;;;;;;14.10;9.90;;;6.80;93.60;;;;;;4954355;29;20225;-68
2021/01/31 13:28:16;;;;;;;15.77;9.40;;;6.70;93.60;;;;;;4954082;28;20217;-69
2021/01/31 13:30:43;;;;;;;10.90;8.30;;;6.60;94.60;;;;;;4954199;29;20626;-72
2021/01/31 13:33:10;;;;;;;9.93;8.87;;;6.50;94.50;;;;;;4954398;28;20551;-69
2021/01/31 13:35:36;;;;;;;13.13;9.80;;;6.40;94.80;;;;;;4953918;28;20442;-69
2021/01/31 13:38:01;;;;;;;14.13;8.67;;;6.30;95.50;;;;;;4951106;29;20444;-69
2021/01/31 13:40:27;;;;;;;12.30;8.87;;;6.40;94.80;;;;;;4953714;29;20189;-69
2021/01/31 13:42:52;;;;;;;11.60;9.83;;;6.30;95.30;;;;;;4953566;29;20638;-68
2021/01/31 13:45:20;;;;;;;14.93;10.03;;;6.30;95.70;;;;;;4953059;29;20185;-69
2021/01/31 13:47:47;;;;;;;15.27;9.97;;;6.40;95.40;;;;;;4953731;28;20352;-68
2021/01/31 13:50:17;;;;;;;13.93;10.07;;;6.50;95.80;;;;;;4953576;28;20444;-69
2021/01/31 13:52:42;;;;;;;15.50;9.40;;;6.50;96.00;;;;;;4953670;28;20612;-69
2021/01/31 13:55:08;;;;;;;13.07;9.50;;;6.60;95.50;;;;;;4953672;29;20457;-68
2021/01/31 13:57:34;;;;;;;15.07;9.97;;;6.60;95.00;;;;;;4953177;29;20185;-67
2021/01/31 13:59:59;;;;;;;15.30;11.55;;;6.60;95.00;;;;;;4952766;29;20442;-69
2021/01/31 14:02:25;;;;;;;13.00;9.20;;;6.50;95.10;;;;;;4953525;29;20182;-68
2021/01/31 14:04:50;;;;;;;12.60;9.00;;;6.50;95.00;;;;;;4952108;29;20552;-68
2021/01/31 14:07:16;;;;;;;13.90;9.20;;;6.50;95.60;;;;;;4950787;29;20268;-68
2021/01/31 14:09:41;;;;;;;11.83;8.50;;;6.40;95.50;;;;;;4953548;29;20299;-69
2021/01/31 14:12:07;;;;;;;11.87;8.53;;;6.50;94.40;;;;;;4955224;28;20252;-70
2021/01/31 14:14:33;;;;;;;16.93;8.70;;;6.30;94.60;;;;;;4957791;28;20591;-69
2021/01/31 14:16:59;;;;;;;11.45;10.00;;;6.10;94.90;;;;;;4956919;28;20452;-69
2021/01/31 14:19:24;;;;;;;10.63;8.87;;;6.00;95.30;;;;;;4958055;29;20541;-68
2021/01/31 14:21:50;;;;;;;11.37;7.80;;;6.00;98.20;;;;;;4957527;29;20181;-70
2021/01/31 14:24:15;;;;;;;12.00;9.73;;;6.00;97.70;;;;;;4957110;29;20205;-70
2021/01/31 14:26:41;;;;;;;13.63;10.00;;;6.10;95.50;;;;;;4956973;29;20185;-69
2021/01/31 14:29:06;;;;;;;10.07;7.73;;;6.00;94.90;;;;;;4957048;29;20174;-69
2021/01/31 14:31:32;;;;;;;13.47;9.33;;;5.90;95.00;;;;;;4958027;29;20182;-68
2021/01/31 14:33:58;;;;;;;12.27;9.30;;;6.00;94.70;;;;;;4958219;29;20179;-68
2021/01/31 14:36:24;;;;;;;13.43;9.70;;;5.90;94.50;;;;;;4958289;29;20170;-68
2021/01/31 14:38:50;;;;;;;15.27;10.80;;;5.90;94.90;;;;;;4958387;28;20177;-68
2021/01/31 14:41:16;;;;;;;14.03;10.43;;;5.90;95.10;;;;;;4958255;29;20514;-68
2021/01/31 14:43:42;;;;;;;13.53;9.40;;;5.80;95.70;;;;;;4958599;28;20177;-68
2021/01/31 14:46:08;;;;;;;13.70;10.67;;;5.80;95.70;;;;;;4958268;29;20817;-68
2021/01/31 14:48:33;;;;;;;14.83;9.73;;;5.80;95.70;;;;;;4958155;29;20237;-68
2021/01/31 14:50:59;;;;;;;16.23;11.20;;;5.70;95.40;;;;;;4958153;29;20178;-68
2021/01/31 14:53:25;;;;;;;15.53;10.93;;;5.60;95.80;;;;;;4958019;29;20187;-68
2021/01/31 14:55:50;;;;;;;16.67;10.07;;;5.70;96.00;;;;;;4958101;29;20189;-68
2021/01/31 14:58:16;;;;;;;13.33;10.00;;;5.60;95.60;;;;;;4956850;28;20280;-68
2021/01/31 15:00:42;;;;;;;14.43;9.80;;;5.50;95.80;;;;;;4958059;29;20566;-68
2021/01/31 15:03:12;;;;;;;13.30;9.77;;;5.40;96.10;;;;;;4957906;28;20236;-68
2021/01/31 15:05:39;;;;;;;14.67;10.00;;;5.40;96.40;;;;;;4957936;28;20521;-68
2021/01/31 15:08:05;;;;;;;13.20;9.77;;;5.30;97.00;;;;;;4957685;28;20477;-68
2021/01/31 15:10:31;;;;;;;12.90;9.20;;;5.20;97.00;;;;;;4957894;29;20499;-68
2021/01/31 15:12:57;;;;;;;17.73;12.27;;;5.10;97.80;;;;;;4957875;29;20175;-68
2021/01/31 15:15:24;;;;;;;11.33;9.40;;;5.10;97.40;;;;;;4957473;29;20256;-67
2021/01/31 15:17:50;;;;;;;14.10;9.80;;;5.00;98.40;;;;;;4957635;28;20185;-67
2021/01/31 15:20:19;;;;;;;15.67;10.63;;;4.90;98.50;;;;;;4957520;29;20464;-67
2021/01/31 15:22:44;;;;;;;17.77;10.63;;;4.90;98.60;;;;;;4956895;28;20601;-67
2021/01/31 15:25:10;;;;;;;13.07;9.10;;;4.80;99.10;;;;;;4956954;29;20469;-67
2021/01/31 15:27:36;;;;;;;19.33;12.07;;;4.80;99.20;;;;;;4956332;28;20220;-67
2021/01/31 15:30:07;;;;;;;15.77;10.63;;;4.70;99.50;;;;;;4956570;29;20898;-67
2021/01/31 15:32:32;;;;;;;17.47;10.50;;;4.60;99.90;;;;;;4956643;28;20204;-67
2021/01/31 15:34:58;;;;;;;18.53;11.00;;;4.80;99.90;;;;;;4956412;29;20419;-67
2021/01/31 15:37:25;;;;;;;15.47;10.87;;;4.70;99.90;;;;;;4956553;28;20179;-67
2021/01/31 15:39:50;;;;;;;15.33;10.23;;;4.70;99.90;;;;;;4956383;28;20426;-67
2021/01/31 15:42:16;;;;;;;16.03;10.97;;;4.80;99.90;;;;;;4956406;28;20762;-67
2021/01/31 15:44:42;;;;;;;16.90;10.80;;;4.70;99.90;;;;;;4956466;29;20190;-67
2021/01/31 15:47:07;;;;;;;15.70;10.57;;;4.70;99.90;;;;;;4956226;28;20265;-67
2021/01/31 15:49:33;;;;;;;16.03;11.60;;;4.70;99.90;;;;;;4956292;28;20180;-67
2021/01/31 15:51:59;;;;;;;14.70;10.60;;;4.70;99.90;;;;;;4956233;28;20209;-67
2021/01/31 15:54:24;;;;;;;15.77;10.43;;;4.70;99.90;;;;;;4956220;29;20182;-67
2021/01/31 15:56:50;;;;;;;16.93;10.47;;;4.60;99.90;;;;;;4956280;29;20251;-67
2021/01/31 15:59:16;;;;;;;13.83;10.10;;;4.60;99.90;;;;;;4955964;29;20219;-67
2021/01/31 16:01:42;;;;;;;16.60;11.27;;;4.50;99.90;;;;;;4955909;28;20551;-67
2021/01/31 16:04:08;;;;;;;14.97;10.47;;;4.40;99.90;;;;;;4955133;28;20441;-68
2021/01/31 16:06:34;;;;;;;15.03;10.33;;;4.40;99.90;;;;;;4955718;28;20429;-67
2021/01/31 16:08:59;;;;;;;15.80;11.83;;;4.40;99.90;;;;;;4956163;29;20481;-67
2021/01/31 16:11:26;;;;;;;16.43;10.43;;;4.40;99.90;;;;;;4955463;29;20653;-69
2021/01/31 16:13:51;;;;;;;16.57;12.30;;;4.40;99.90;;;;;;4956607;29;20779;-68
2021/01/31 16:16:18;;;;;;;19.47;11.47;;;4.30;99.90;;;;;;4959329;29;20472;-67
2021/01/31 16:18:48;;;;;;;15.47;11.60;;;4.30;99.90;;;;;;4955531;28;20280;-68
2021/01/31 16:21:13;;;;;;;19.30;11.30;;;4.20;99.90;;;;;;4955758;28;20432;-69
2021/01/31 16:23:40;;;;;;;18.37;12.77;;;4.10;99.90;;;;;;4955700;28;20436;-68
2021/01/31 16:26:06;;;;;;;16.60;11.83;;;4.00;99.90;;;;;;4955553;28;20180;-67
2021/01/31 16:28:31;;;;;;;18.37;12.93;;;4.00;99.90;;;;;;4955357;28;20510;-67
2021/01/31 16:30:58;;;;;;;18.47;11.20;;;4.10;99.90;;;;;;4955439;29;20186;-67
2021/01/31 16:33:25;;;;;;;22.63;16.13;;;4.10;99.90;;;;;;4954507;28;20437;-67
2021/01/31 16:35:50;;;;;;;18.60;12.37;;;4.20;99.90;;;;;;4955206;28;20660;-67
2021/01/31 16:38:16;;;;;;;16.17;12.93;;;4.30;99.90;;;;;;4955207;29;20474;-67
2021/01/31 16:40:42;;;;;;;16.97;12.00;;;4.30;99.90;;;;;;4955262;29;20205;-69
2021/01/31 16:43:12;;;;;;;22.60;12.97;;;4.20;99.90;;;;;;4955116;29;20999;-69
2021/01/31 16:45:39;;;;;;;19.13;11.70;;;4.10;99.90;;;;;;4955581;28;20173;-69
2021/01/31 16:48:10;;;;;;;19.67;12.27;;;4.10;99.90;;;;;;4955081;28;20976;-69
2021/01/31 16:50:37;;;;;;;24.43;12.20;;;4.10;99.90;;;;;;4955120;28;20422;-69
2021/01/31 16:53:03;;;;;;;18.90;12.10;;;4.10;99.90;;;;;;4955436;28;20437;-83
2021/01/31 16:55:29;;;;;;;18.50;11.20;;;4.10;99.90;;;;;;4954962;28;20979;-77
2021/01/31 16:57:55;;;;;;;17.57;11.17;;;4.10;99.90;;;;;;4955263;28;20427;-74
2021/01/31 17:00:23;;;;;;;17.33;12.20;;;4.00;99.90;;;;;;4954456;28;20634;-73
2021/01/31 17:02:49;;;;;;;19.27;12.03;;;4.00;99.90;;;;;;4955552;28;20182;-74
2021/01/31 17:05:16;;;;;;;20.90;13.73;;;4.00;99.90;;;;;;4955395;29;20739;-72
2021/01/31 17:07:47;;;;;;;17.70;12.30;;;4.10;99.90;;;;;;4955251;28;20216;-72
2021/01/31 17:10:15;;;;;;;17.70;11.60;;;4.10;99.90;;;;;;4955433;28;20438;-73
2021/01/31 17:12:41;;;;;;;15.60;10.70;;;4.20;99.90;;;;;;4955277;28;20437;-74
2021/01/31 17:15:08;;;;;;;19.10;11.23;;;4.10;99.90;;;;;;4955163;28;20437;-72
2021/01/31 17:17:34;;;;;;;20.10;11.47;;;4.10;99.90;;;;;;4954789;28;20441;-72
2021/01/31 17:19:59;;;;;;;15.20;10.80;;;4.00;99.90;;;;;;4954910;29;20435;-72
2021/01/31 17:22:25;;;;;;;15.63;11.20;;;4.00;99.90;;;;;;4955263;29;20183;-73
2021/01/31 17:24:53;;;;;;;17.53;11.83;;;4.10;99.90;;;;;;4955106;29;20224;-79